This is the latest recevied weather packets stored in our database for station/object DG2MCM-11. If no packets are shown the sender has not sent any weather packets the latest 10 day(s).
| Time | Temp. | Humidity | Pressure | Rain* | Wind** | Luminosity | Snow |
|---|---|---|---|---|---|---|---|
| 1777762684 | 10.56° C | 73% | 1018.4 hPa | 0 mm | - | - | - |
| 1777760880 | 11.11° C | 74% | 1018.5 hPa | 0 mm | - | - | - |
| 1777760278 | 11.11° C | 74% | 1018.5 hPa | 0 mm | - | - | - |
| 1777759676 | 11.11° C | 74% | 1018.5 hPa | 0 mm | - | - | - |
| 1777759075 | 11.67° C | 73% | 1018.5 hPa | 0 mm | - | - | - |
| 1777757872 | 11.67° C | 72% | 1018.4 hPa | 0 mm | - | - | - |
| 1777756067 | 12.22° C | 69% | 1018.6 hPa | 0 mm | - | - | - |
| 1777755526 | 12.22° C | 69% | 1018.6 hPa | 0 mm | - | - | - |
| 1777753120 | 13.33° C | 66% | 1018.4 hPa | 0 mm | - | - | - |
| 1777751918 | 14.44° C | 64% | 1018.2 hPa | 0 mm | - | - | - |
| 1777751316 | 15° C | 64% | 1018.1 hPa | 0 mm | - | - | - |
| 1777750714 | 15.56° C | 61% | 1017.9 hPa | 0 mm | - | - | - |
| 1777750113 | 15.56° C | 60% | 1017.7 hPa | 0 mm | - | - | - |
| 1777749510 | 16.11° C | 60% | 1017.6 hPa | 0 mm | - | - | - |
| 1777748909 | 16.67° C | 59% | 1017.4 hPa | 0 mm | - | - | - |
| 1777748307 | 17.22° C | 55% | 1017.2 hPa | 0 mm | - | - | - |
| 1777744098 | 21.67° C | 35% | 1015.5 hPa | 0 mm | - | - | - |
| 1777743496 | 22.78° C | 35% | 1015.4 hPa | 0 mm | - | - | - |
| 1777742895 | 22.78° C | 34% | 1015.3 hPa | 0 mm | - | - | - |
| 1777742293 | 23.33° C | 33% | 1015.3 hPa | 0 mm | - | - | - |
| 1777741691 | 23.89° C | 31% | 1015.2 hPa | 0 mm | - | - | - |
| 1777741090 | 23.89° C | 31% | 1015.1 hPa | 0 mm | - | - | - |
| 1777740488 | 24.44° C | 30% | 1015.1 hPa | 0 mm | - | - | - |
| 1777739886 | 24.44° C | 31% | 1015.1 hPa | 0 mm | - | - | - |
| 1777739285 | 24.44° C | 30% | 1015.2 hPa | 0 mm | - | - | - |
* Rain latest hour (hover to see other rain measurements)
** Current wind speed in m/s (hover to see current wind gust speed)